createdAt,value
2019-01-06T00:00:40.640Z,0
2019-01-06T00:01:40.363Z,0
2019-01-06T00:02:40.587Z,0
2019-01-06T00:03:40.320Z,0
2019-01-06T00:04:39.904Z,0
2019-01-06T00:05:40.815Z,0
2019-01-06T00:06:40.361Z,0
2019-01-06T00:07:40.779Z,0
2019-01-06T00:08:40.313Z,0
2019-01-06T00:09:40.292Z,0
2019-01-06T00:10:40.560Z,0
2019-01-06T00:11:40.551Z,0
2019-01-06T00:12:40.507Z,0
2019-01-06T00:13:40.749Z,0
2019-01-06T00:14:40.500Z,0
2019-01-06T00:15:40.581Z,0
2019-01-06T00:16:40.234Z,0
2019-01-06T00:17:40.215Z,0
2019-01-06T00:18:40.498Z,0
2019-01-06T00:19:40.302Z,0
2019-01-06T00:20:40.774Z,0
2019-01-06T00:21:40.181Z,0
2019-01-06T00:22:40.005Z,0
2019-01-06T00:23:40.223Z,0
2019-01-06T00:24:40.660Z,0
2019-01-06T00:25:40.041Z,0
2019-01-06T00:26:40.614Z,0
2019-01-06T00:27:40.440Z,0
2019-01-06T00:28:40.263Z,0
2019-01-06T00:29:40.223Z,0
2019-01-06T00:30:40.169Z,0
2019-01-06T00:31:42.343Z,0
2019-01-06T00:32:39.826Z,0
2019-01-06T00:33:39.765Z,0
2019-01-06T00:34:40.607Z,0
2019-01-06T00:35:39.824Z,0
2019-01-06T00:36:40.381Z,0
2019-01-06T00:37:40.314Z,0
2019-01-06T00:38:40.264Z,0
2019-01-06T00:39:40.584Z,0
2019-01-06T00:40:39.748Z,0
2019-01-06T00:41:40.102Z,0
2019-01-06T00:42:40.363Z,0
2019-01-06T00:43:40.409Z,0
2019-01-06T00:44:40.211Z,0
2019-01-06T00:45:40.209Z,0
2019-01-06T00:46:40.325Z,0
2019-01-06T00:47:39.942Z,0
2019-01-06T00:48:40.178Z,0
2019-01-06T00:49:39.724Z,0
2019-01-06T00:50:40.413Z,0
2019-01-06T00:51:40.411Z,0
2019-01-06T00:52:40.158Z,0
2019-01-06T00:53:39.878Z,0
2019-01-06T00:54:40.126Z,0
2019-01-06T00:55:39.862Z,0
2019-01-06T00:56:39.875Z,0
2019-01-06T00:57:39.614Z,0
2019-01-06T00:58:39.845Z,0
2019-01-06T00:59:40.091Z,0
2019-01-06T01:00:40.314Z,0
2019-01-06T01:01:40.425Z,0
2019-01-06T01:02:40.801Z,0
2019-01-06T01:03:39.816Z,0
2019-01-06T01:04:39.857Z,0
2019-01-06T01:05:39.783Z,0
2019-01-06T01:06:39.835Z,0
2019-01-06T01:07:40.291Z,0
2019-01-06T01:08:40.015Z,0
2019-01-06T01:09:40.748Z,0
2019-01-06T01:10:39.751Z,0
2019-01-06T01:11:39.561Z,0
2019-01-06T01:12:39.943Z,0
2019-01-06T01:13:39.949Z,0
2019-01-06T01:14:39.534Z,0
2019-01-06T01:15:39.599Z,0
2019-01-06T01:16:39.905Z,0
2019-01-06T01:17:39.924Z,0
2019-01-06T01:18:40.137Z,0
2019-01-06T01:19:41.756Z,0
2019-01-06T01:20:39.697Z,0
2019-01-06T01:21:39.478Z,0
2019-01-06T01:22:39.383Z,0
2019-01-06T01:23:39.632Z,0
2019-01-06T01:24:39.387Z,0
2019-01-06T01:25:39.594Z,0
2019-01-06T01:26:47.987Z,0
2019-01-06T01:27:39.562Z,0
2019-01-06T01:28:40.061Z,0
2019-01-06T01:29:39.603Z,0
2019-01-06T01:30:39.567Z,0
2019-01-06T01:31:39.459Z,0
2019-01-06T01:32:39.512Z,0
2019-01-06T01:33:39.285Z,0
2019-01-06T01:34:40.050Z,0
2019-01-06T01:35:39.016Z,0
2019-01-06T01:36:39.771Z,0
2019-01-06T01:37:39.210Z,0
2019-01-06T01:38:39.967Z,0
2019-01-06T01:39:39.703Z,0
2019-01-06T01:40:39.577Z,0
2019-01-06T01:41:39.608Z,0
2019-01-06T01:42:39.673Z,0
2019-01-06T01:43:39.423Z,0
2019-01-06T01:44:39.652Z,0
2019-01-06T01:45:39.916Z,0
2019-01-06T01:46:39.244Z,0
2019-01-06T01:47:39.877Z,0
2019-01-06T01:48:39.137Z,0
2019-01-06T01:49:39.940Z,0
2019-01-06T01:50:39.378Z,0
2019-01-06T01:51:39.859Z,0
2019-01-06T01:52:39.583Z,0
2019-01-06T01:53:39.083Z,0
2019-01-06T01:54:39.325Z,0
2019-01-06T01:55:39.058Z,0
2019-01-06T01:56:39.596Z,0
2019-01-06T01:57:39.049Z,0
2019-01-06T01:58:39.779Z,0
2019-01-06T01:59:39.290Z,0
2019-01-06T02:00:39.757Z,0
2019-01-06T02:01:39.348Z,0
2019-01-06T02:02:39.741Z,0
2019-01-06T02:03:39.313Z,0
2019-01-06T02:04:39.232Z,0
2019-01-06T02:05:39.694Z,0
2019-01-06T02:06:39.211Z,0
2019-01-06T02:07:39.702Z,0
2019-01-06T02:08:39.129Z,0
2019-01-06T02:09:39.435Z,0
2019-01-06T02:10:39.511Z,0
2019-01-06T02:11:39.515Z,0
2019-01-06T02:12:39.173Z,0
2019-01-06T02:13:39.702Z,0
2019-01-06T02:14:40.034Z,0
2019-01-06T02:15:38.883Z,0
2019-01-06T02:16:39.160Z,0
2019-01-06T02:17:39.377Z,0
2019-01-06T02:18:39.372Z,0
2019-01-06T02:19:39.098Z,0
2019-01-06T02:20:41.810Z,0
2019-01-06T02:21:39.632Z,0
2019-01-06T02:22:38.818Z,0
2019-01-06T02:23:39.140Z,0
2019-01-06T02:24:39.285Z,0
2019-01-06T02:25:39.047Z,0
2019-01-06T02:26:39.651Z,0
2019-01-06T02:27:39.276Z,0
2019-01-06T02:28:39.269Z,0
2019-01-06T02:29:39.541Z,0
2019-01-06T02:30:38.763Z,0
2019-01-06T02:31:39.241Z,0
2019-01-06T02:32:40.905Z,0
2019-01-06T02:33:39.300Z,0
2019-01-06T02:34:39.200Z,0
2019-01-06T02:35:39.437Z,0
2019-01-06T02:36:38.963Z,0
2019-01-06T02:37:39.177Z,0
2019-01-06T02:38:38.911Z,0
2019-01-06T02:39:38.915Z,0
2019-01-06T02:40:39.403Z,0
2019-01-06T02:41:39.442Z,0
2019-01-06T02:42:39.383Z,0
2019-01-06T02:43:39.110Z,0
2019-01-06T02:44:38.862Z,0
2019-01-06T02:45:39.346Z,0
2019-01-06T02:46:39.072Z,0
2019-01-06T02:47:39.329Z,0
2019-01-06T02:48:39.315Z,0
2019-01-06T02:49:39.331Z,0
2019-01-06T02:50:41.508Z,0
2019-01-06T02:51:39.099Z,0
2019-01-06T02:52:39.291Z,0
2019-01-06T02:53:39.059Z,0
2019-01-06T02:54:39.322Z,0
2019-01-06T02:55:39.269Z,0
2019-01-06T02:56:38.808Z,0
2019-01-06T02:57:38.767Z,0
2019-01-06T02:58:39.225Z,0
2019-01-06T02:59:39.219Z,0
2019-01-06T03:00:39.208Z,0
2019-01-06T03:01:39.208Z,0
2019-01-06T03:02:38.680Z,0
2019-01-06T03:03:38.962Z,0
2019-01-06T03:04:38.442Z,0
2019-01-06T03:05:39.172Z,0
2019-01-06T03:06:38.995Z,0
2019-01-06T03:07:38.913Z,0
2019-01-06T03:08:38.644Z,0
2019-01-06T03:09:38.884Z,0
2019-01-06T03:10:38.865Z,0
2019-01-06T03:11:38.673Z,0
2019-01-06T03:12:38.347Z,0
2019-01-06T03:13:38.830Z,0
2019-01-06T03:14:39.069Z,0
2019-01-06T03:15:39.150Z,0
2019-01-06T03:16:38.807Z,0
2019-01-06T03:17:38.797Z,0
2019-01-06T03:18:38.538Z,0
2019-01-06T03:19:39.033Z,0
2019-01-06T03:20:41.073Z,0
2019-01-06T03:21:38.588Z,0
2019-01-06T03:22:39.037Z,0
2019-01-06T03:23:38.770Z,0
2019-01-06T03:24:38.746Z,0
2019-01-06T03:25:38.988Z,0
2019-01-06T03:26:39.007Z,0
2019-01-06T03:27:38.990Z,0
2019-01-06T03:28:38.720Z,0
2019-01-06T03:29:38.919Z,0
2019-01-06T03:30:38.466Z,0
2019-01-06T03:31:38.923Z,0
2019-01-06T03:32:38.994Z,0
2019-01-06T03:33:38.948Z,0
2019-01-06T03:34:38.920Z,0
2019-01-06T03:35:38.483Z,0
2019-01-06T03:36:38.670Z,0
2019-01-06T03:37:38.365Z,0
2019-01-06T03:38:38.607Z,0
2019-01-06T03:39:38.840Z,0
2019-01-06T03:40:38.580Z,0
2019-01-06T03:41:38.903Z,0
2019-01-06T03:42:38.834Z,0
2019-01-06T03:43:38.064Z,0
2019-01-06T03:44:38.297Z,0
2019-01-06T03:45:38.793Z,0
2019-01-06T03:46:38.789Z,0
2019-01-06T03:47:38.779Z,0
2019-01-06T03:48:38.519Z,0
2019-01-06T03:49:38.510Z,0
2019-01-06T03:50:41.976Z,0
2019-01-06T03:51:38.482Z,0
2019-01-06T03:52:38.469Z,0
2019-01-06T03:53:38.452Z,0
2019-01-06T03:54:38.459Z,0
2019-01-06T03:55:38.449Z,0
2019-01-06T03:56:38.519Z,0
2019-01-06T03:57:38.697Z,0
2019-01-06T03:58:38.169Z,0
2019-01-06T03:59:38.194Z,0
2019-01-06T04:00:38.741Z,0
2019-01-06T04:01:38.403Z,0
2019-01-06T04:02:38.425Z,0
2019-01-06T04:03:38.634Z,0
2019-01-06T04:04:38.118Z,0
2019-01-06T04:05:38.350Z,0
2019-01-06T04:06:38.486Z,0
2019-01-06T04:07:38.569Z,0
2019-01-06T04:08:38.578Z,0
2019-01-06T04:09:38.667Z,0
2019-01-06T04:10:38.556Z,0
2019-01-06T04:11:38.308Z,0
2019-01-06T04:12:38.329Z,0
2019-01-06T04:13:38.521Z,0
2019-01-06T04:14:38.535Z,0
2019-01-06T04:15:38.415Z,0
2019-01-06T04:16:38.584Z,0
2019-01-06T04:17:40.288Z,0
2019-01-06T04:18:38.231Z,0
2019-01-06T04:19:38.218Z,0
2019-01-06T04:20:37.978Z,0
2019-01-06T04:21:39.285Z,0
2019-01-06T04:22:38.202Z,0
2019-01-06T04:23:38.190Z,0
2019-01-06T04:24:38.288Z,0
2019-01-06T04:25:38.201Z,0
2019-01-06T04:26:38.229Z,0
2019-01-06T04:27:38.409Z,0
2019-01-06T04:28:37.910Z,0
2019-01-06T04:29:37.887Z,0
2019-01-06T04:30:37.896Z,0
2019-01-06T04:31:38.370Z,0
2019-01-06T04:32:37.859Z,0
2019-01-06T04:33:38.091Z,0
2019-01-06T04:34:38.120Z,0
2019-01-06T04:35:37.853Z,0
2019-01-06T04:36:38.245Z,0
2019-01-06T04:37:38.065Z,0
2019-01-06T04:38:38.054Z,0
2019-01-06T04:39:38.281Z,0
2019-01-06T04:40:38.269Z,0
2019-01-06T04:41:38.045Z,0
2019-01-06T04:42:38.011Z,0
2019-01-06T04:43:38.259Z,0
2019-01-06T04:44:37.747Z,0
2019-01-06T04:45:38.008Z,0
2019-01-06T04:46:38.343Z,0
2019-01-06T04:47:38.231Z,0
2019-01-06T04:48:37.977Z,0
2019-01-06T04:49:38.216Z,0
2019-01-06T04:50:39.361Z,0
2019-01-06T04:51:39.576Z,0
2019-01-06T04:52:38.183Z,0
2019-01-06T04:53:38.156Z,0
2019-01-06T04:54:37.902Z,0
2019-01-06T04:55:38.142Z,0
2019-01-06T04:56:37.968Z,0
2019-01-06T04:57:38.112Z,0
2019-01-06T04:58:37.880Z,0
2019-01-06T04:59:37.860Z,0
2019-01-06T05:00:37.860Z,0
2019-01-06T05:01:38.101Z,0
2019-01-06T05:02:38.073Z,0
2019-01-06T05:03:37.830Z,0
2019-01-06T05:04:38.050Z,0
2019-01-06T05:05:37.794Z,0
2019-01-06T05:06:38.162Z,0
2019-01-06T05:07:38.037Z,0
2019-01-06T05:08:38.030Z,0
2019-01-06T05:09:38.013Z,0
2019-01-06T05:10:37.988Z,0
2019-01-06T05:11:37.541Z,0
2019-01-06T05:12:37.769Z,0
2019-01-06T05:13:38.027Z,0
2019-01-06T05:14:37.726Z,0
2019-01-06T05:15:37.725Z,0
2019-01-06T05:16:38.003Z,0
2019-01-06T05:17:37.196Z,0
2019-01-06T05:18:37.932Z,0
2019-01-06T05:19:37.671Z,0
2019-01-06T05:20:37.406Z,0
2019-01-06T05:21:39.600Z,0
2019-01-06T05:22:37.634Z,0
2019-01-06T05:23:37.621Z,0
2019-01-06T05:24:37.609Z,0
2019-01-06T05:25:37.870Z,0
2019-01-06T05:26:40.883Z,0
2019-01-06T05:27:37.595Z,0
2019-01-06T05:28:37.577Z,0
2019-01-06T05:29:37.600Z,0
2019-01-06T05:30:37.795Z,0
2019-01-06T05:31:37.881Z,0
2019-01-06T05:32:37.546Z,0
2019-01-06T05:33:37.782Z,0
2019-01-06T05:34:37.763Z,0
2019-01-06T05:35:37.787Z,0
2019-01-06T05:36:37.610Z,0
2019-01-06T05:37:37.737Z,0
2019-01-06T05:38:37.497Z,0
2019-01-06T05:39:37.808Z,0
2019-01-06T05:40:37.253Z,0
2019-01-06T05:41:37.250Z,0
2019-01-06T05:42:37.713Z,0
2019-01-06T05:43:37.707Z,0
2019-01-06T05:44:37.459Z,0
2019-01-06T05:45:37.699Z,0
2019-01-06T05:46:37.504Z,0
2019-01-06T05:47:37.158Z,0
2019-01-06T05:48:37.640Z,0
2019-01-06T05:49:37.427Z,0
2019-01-06T05:50:37.635Z,0
2019-01-06T05:51:37.350Z,0
2019-01-06T05:52:38.458Z,0
2019-01-06T05:53:37.059Z,0
2019-01-06T05:54:37.286Z,0
2019-01-06T05:55:37.550Z,0
2019-01-06T05:56:37.328Z,0
2019-01-06T05:57:36.783Z,0
2019-01-06T05:58:37.003Z,0
2019-01-06T05:59:37.301Z,0
2019-01-06T06:00:37.583Z,0
2019-01-06T06:01:37.558Z,0
2019-01-06T06:02:36.760Z,0
2019-01-06T06:03:36.773Z,0
2019-01-06T06:04:37.237Z,0
2019-01-06T06:05:36.733Z,0
2019-01-06T06:06:37.587Z,0
2019-01-06T06:07:39.739Z,0
2019-01-06T06:08:36.968Z,0
2019-01-06T06:09:37.450Z,0
2019-01-06T06:10:37.436Z,0
2019-01-06T06:11:37.507Z,0
2019-01-06T06:12:37.177Z,0
2019-01-06T06:13:37.166Z,0
2019-01-06T06:14:37.411Z,0
2019-01-06T06:15:37.161Z,0
2019-01-06T06:16:37.152Z,0
2019-01-06T06:17:36.627Z,0
2019-01-06T06:18:37.123Z,0
2019-01-06T06:19:37.353Z,0
2019-01-06T06:20:37.168Z,0
2019-01-06T06:21:37.197Z,0
2019-01-06T06:22:41.325Z,0
2019-01-06T06:23:37.076Z,0
2019-01-06T06:24:37.068Z,0
2019-01-06T06:25:37.356Z,0
2019-01-06T06:26:37.413Z,0
2019-01-06T06:27:36.776Z,0
2019-01-06T06:28:37.576Z,0
2019-01-06T06:29:36.764Z,0
2019-01-06T06:30:37.438Z,0
2019-01-06T06:31:36.299Z,0
2019-01-06T06:32:37.208Z,0
2019-01-06T06:33:36.972Z,0
2019-01-06T06:34:36.962Z,0
2019-01-06T06:35:36.955Z,0
2019-01-06T06:36:37.220Z,0
2019-01-06T06:37:36.674Z,0
2019-01-06T06:38:36.420Z,0
2019-01-06T06:39:36.661Z,0
2019-01-06T06:40:36.907Z,0
2019-01-06T06:41:37.179Z,0
2019-01-06T06:42:36.871Z,0
2019-01-06T06:43:36.861Z,0
2019-01-06T06:44:37.115Z,0
2019-01-06T06:45:36.601Z,0
2019-01-06T06:46:36.631Z,0
2019-01-06T06:47:36.855Z,0
2019-01-06T06:48:36.832Z,0
2019-01-06T06:49:36.566Z,0
2019-01-06T06:50:36.811Z,0
2019-01-06T06:51:36.619Z,0
2019-01-06T06:52:36.559Z,0
2019-01-06T06:53:38.439Z,0
2019-01-06T06:54:36.770Z,0
2019-01-06T06:55:36.779Z,0
2019-01-06T06:56:37.057Z,0
2019-01-06T06:57:36.487Z,0
2019-01-06T06:58:36.734Z,0
2019-01-06T06:59:36.967Z,0
2019-01-06T07:00:36.718Z,0
2019-01-06T07:01:36.543Z,0
2019-01-06T07:02:36.453Z,0
2019-01-06T07:03:36.692Z,0
2019-01-06T07:04:36.430Z,0
2019-01-06T07:05:36.948Z,0
2019-01-06T07:06:37.037Z,0
2019-01-06T07:07:36.659Z,0
2019-01-06T07:08:37.006Z,0
2019-01-06T07:09:36.382Z,0
2019-01-06T07:10:36.381Z,0
2019-01-06T07:11:36.204Z,0
2019-01-06T07:12:36.642Z,0
2019-01-06T07:13:36.924Z,0
2019-01-06T07:14:36.330Z,0
2019-01-06T07:15:36.595Z,0
2019-01-06T07:16:36.581Z,0
2019-01-06T07:17:36.544Z,0
2019-01-06T07:18:36.414Z,0
2019-01-06T07:19:36.051Z,0
2019-01-06T07:20:36.295Z,0
2019-01-06T07:21:36.328Z,0
2019-01-06T07:22:36.037Z,0
2019-01-06T07:23:37.044Z,0
2019-01-06T07:24:36.247Z,0
2019-01-06T07:25:36.251Z,0
2019-01-06T07:26:36.749Z,0
2019-01-06T07:27:36.208Z,0
2019-01-06T07:28:36.718Z,0
2019-01-06T07:29:35.967Z,0
2019-01-06T07:30:36.467Z,0
2019-01-06T07:31:36.208Z,0
2019-01-06T07:32:36.420Z,0
2019-01-06T07:33:36.422Z,0
2019-01-06T07:34:36.159Z,0
2019-01-06T07:35:36.638Z,0
2019-01-06T07:36:36.519Z,0
2019-01-06T07:37:35.882Z,0
2019-01-06T07:38:38.275Z,0
2019-01-06T07:39:36.358Z,0
2019-01-06T07:40:35.932Z,5
2019-01-06T07:41:36.654Z,5
2019-01-06T07:42:36.080Z,5
2019-01-06T07:43:36.150Z,5
2019-01-06T07:44:36.324Z,5
2019-01-06T07:45:36.555Z,5
2019-01-06T07:46:35.615Z,5
2019-01-06T07:47:36.298Z,5
2019-01-06T07:48:36.285Z,5
2019-01-06T07:49:36.020Z,5
2019-01-06T07:50:36.494Z,5
2019-01-06T07:51:37.554Z,5
2019-01-06T07:52:36.013Z,5
2019-01-06T07:53:36.044Z,5
2019-01-06T07:54:36.521Z,5
2019-01-06T07:55:35.966Z,10
2019-01-06T07:56:36.303Z,10
2019-01-06T07:57:36.195Z,10
2019-01-06T07:58:35.512Z,10
2019-01-06T07:59:36.198Z,10
2019-01-06T08:00:36.181Z,10
2019-01-06T08:01:36.169Z,10
2019-01-06T08:02:38.306Z,10
2019-01-06T08:03:35.895Z,10
2019-01-06T08:04:35.894Z,10
2019-01-06T08:05:35.621Z,15
2019-01-06T08:06:36.143Z,15
2019-01-06T08:07:36.102Z,15
2019-01-06T08:08:36.371Z,15
2019-01-06T08:09:35.889Z,15
2019-01-06T08:10:36.133Z,15
2019-01-06T08:11:36.150Z,15
2019-01-06T08:12:36.090Z,15
2019-01-06T08:13:36.119Z,15
2019-01-06T08:14:36.355Z,15
2019-01-06T08:15:35.554Z,15
2019-01-06T08:16:35.603Z,15
2019-01-06T08:17:36.295Z,15
2019-01-06T08:18:35.770Z,15
2019-01-06T08:19:35.490Z,15
2019-01-06T08:20:37.609Z,15
2019-01-06T08:21:36.212Z,15
2019-01-06T08:22:35.471Z,15
2019-01-06T08:23:35.481Z,15
2019-01-06T08:24:39.339Z,15
2019-01-06T08:25:35.705Z,15
2019-01-06T08:26:35.736Z,15
2019-01-06T08:27:36.171Z,15
2019-01-06T08:28:35.937Z,15
2019-01-06T08:29:35.648Z,20
2019-01-06T08:30:35.668Z,20
2019-01-06T08:31:35.944Z,20
2019-01-06T08:32:35.863Z,20
2019-01-06T08:33:35.630Z,20
2019-01-06T08:34:35.869Z,25
2019-01-06T08:35:35.616Z,25
2019-01-06T08:36:36.103Z,30
2019-01-06T08:37:35.588Z,40
2019-01-06T08:38:36.101Z,40
2019-01-06T08:39:35.321Z,40
2019-01-06T08:40:35.887Z,35
2019-01-06T08:41:35.810Z,30
2019-01-06T08:42:35.805Z,25
2019-01-06T08:43:36.058Z,25
2019-01-06T08:44:35.516Z,25
2019-01-06T08:45:36.818Z,30
2019-01-06T08:46:35.288Z,30
2019-01-06T08:47:35.504Z,30
2019-01-06T08:48:35.482Z,25
2019-01-06T08:49:35.715Z,25
2019-01-06T08:50:35.474Z,25
2019-01-06T08:51:35.543Z,25
2019-01-06T08:52:35.951Z,25
2019-01-06T08:53:35.944Z,25
2019-01-06T08:54:35.677Z,25
2019-01-06T08:55:39.471Z,25
2019-01-06T08:56:37.335Z,25
2019-01-06T08:57:35.672Z,25
2019-01-06T08:58:35.895Z,30
2019-01-06T08:59:35.382Z,30
2019-01-06T09:00:35.463Z,30
2019-01-06T09:01:35.443Z,35
2019-01-06T09:02:35.352Z,30
2019-01-06T09:03:37.546Z,35
2019-01-06T09:04:35.361Z,35
2019-01-06T09:05:36.114Z,40
2019-01-06T09:06:35.910Z,40
2019-01-06T09:07:35.402Z,45
2019-01-06T09:08:35.306Z,40
2019-01-06T09:09:35.252Z,40
2019-01-06T09:10:35.050Z,35
2019-01-06T09:11:35.016Z,35
2019-01-06T09:12:42.758Z,35
2019-01-06T09:13:35.792Z,35
2019-01-06T09:14:35.757Z,40
2019-01-06T09:15:35.724Z,45
2019-01-06T09:16:35.511Z,50
2019-01-06T09:17:35.510Z,50
2019-01-06T09:18:35.462Z,50
2019-01-06T09:19:35.204Z,45
2019-01-06T09:20:35.699Z,40
2019-01-06T09:21:35.038Z,35
2019-01-06T09:22:35.432Z,35
2019-01-06T09:23:35.174Z,35
2019-01-06T09:24:35.121Z,35
2019-01-06T09:25:44.189Z,40
2019-01-06T09:26:35.425Z,40
2019-01-06T09:27:35.122Z,45
2019-01-06T09:28:35.666Z,50
2019-01-06T09:29:37.283Z,55
2019-01-06T09:30:35.616Z,50
2019-01-06T09:31:36.160Z,50
2019-01-06T09:32:35.562Z,45
2019-01-06T09:33:34.825Z,45
2019-01-06T09:34:35.557Z,45
2019-01-06T09:35:35.743Z,45
2019-01-06T09:36:35.601Z,45
2019-01-06T09:37:35.281Z,45
2019-01-06T09:38:35.523Z,45
2019-01-06T09:39:35.503Z,45
2019-01-06T09:40:36.675Z,50
2019-01-06T09:41:35.813Z,50
2019-01-06T09:42:35.251Z,50
2019-01-06T09:43:35.486Z,50
2019-01-06T09:44:34.962Z,55
2019-01-06T09:45:35.823Z,55
2019-01-06T09:46:34.811Z,50
2019-01-06T09:47:34.731Z,50
2019-01-06T09:48:34.941Z,50
2019-01-06T09:49:35.172Z,45
2019-01-06T09:50:35.196Z,45
2019-01-06T09:51:35.004Z,40
2019-01-06T09:52:35.147Z,40
2019-01-06T09:53:35.373Z,45
2019-01-06T09:54:34.910Z,45
2019-01-06T09:55:35.368Z,40
2019-01-06T09:56:36.144Z,40
2019-01-06T09:57:35.386Z,40
2019-01-06T09:58:35.338Z,40
2019-01-06T09:59:35.323Z,40
2019-01-06T10:00:34.823Z,40
2019-01-06T10:01:35.384Z,40
2019-01-06T10:02:34.819Z,40
2019-01-06T10:03:35.307Z,40
2019-01-06T10:04:42.297Z,40
2019-01-06T10:05:35.281Z,40
2019-01-06T10:06:35.343Z,40
2019-01-06T10:07:35.058Z,35
2019-01-06T10:08:35.301Z,40
2019-01-06T10:09:35.003Z,40
2019-01-06T10:10:34.743Z,45
2019-01-06T10:11:35.035Z,45
2019-01-06T10:12:35.265Z,45
2019-01-06T10:13:35.218Z,45
2019-01-06T10:14:34.977Z,45
2019-01-06T10:15:35.196Z,45
2019-01-06T10:16:34.963Z,45
2019-01-06T10:17:35.237Z,45
2019-01-06T10:18:34.935Z,45
2019-01-06T10:19:34.933Z,45
2019-01-06T10:20:34.901Z,50
2019-01-06T10:21:35.046Z,55
2019-01-06T10:22:35.149Z,50
2019-01-06T10:23:34.643Z,50
2019-01-06T10:24:35.154Z,50
2019-01-06T10:25:34.373Z,50
2019-01-06T10:26:34.641Z,50
2019-01-06T10:27:37.000Z,50
2019-01-06T10:28:35.068Z,55
2019-01-06T10:29:35.079Z,50
2019-01-06T10:30:35.086Z,50
2019-01-06T10:31:35.129Z,50
2019-01-06T10:32:35.046Z,50
2019-01-06T10:33:34.309Z,50
2019-01-06T10:34:36.382Z,55
2019-01-06T10:35:36.729Z,55
2019-01-06T10:36:35.146Z,55
2019-01-06T10:37:34.837Z,55
2019-01-06T10:38:35.005Z,50
2019-01-06T10:39:34.979Z,50
2019-01-06T10:40:34.715Z,50
2019-01-06T10:41:34.813Z,50
2019-01-06T10:42:34.916Z,50
2019-01-06T10:43:34.527Z,50
2019-01-06T10:44:34.692Z,50
2019-01-06T10:45:34.455Z,45
2019-01-06T10:46:34.724Z,50
2019-01-06T10:47:34.923Z,50
2019-01-06T10:48:34.414Z,50
2019-01-06T10:49:34.398Z,50
2019-01-06T10:50:35.296Z,55
2019-01-06T10:51:34.748Z,50
2019-01-06T10:52:34.892Z,50
2019-01-06T10:53:34.367Z,50
2019-01-06T10:54:34.630Z,45
2019-01-06T10:55:34.854Z,45
2019-01-06T10:56:34.386Z,45
2019-01-06T10:57:35.131Z,50
2019-01-06T10:58:34.829Z,45
2019-01-06T10:59:34.351Z,40
2019-01-06T11:00:34.331Z,45
2019-01-06T11:01:34.634Z,45
2019-01-06T11:02:36.645Z,45
2019-01-06T11:03:34.537Z,45
2019-01-06T11:04:34.539Z,45
2019-01-06T11:05:34.518Z,50
2019-01-06T11:06:34.853Z,55
2019-01-06T11:07:34.537Z,60
2019-01-06T11:08:34.497Z,55
2019-01-06T11:09:34.438Z,55
2019-01-06T11:10:34.427Z,55
2019-01-06T11:11:34.517Z,55
2019-01-06T11:12:34.466Z,55
2019-01-06T11:13:34.700Z,50
2019-01-06T11:14:34.668Z,55
2019-01-06T11:15:34.437Z,50
2019-01-06T11:16:34.723Z,45
2019-01-06T11:17:34.413Z,50
2019-01-06T11:18:34.670Z,50
2019-01-06T11:19:34.407Z,45
2019-01-06T11:20:34.627Z,45
2019-01-06T11:21:34.301Z,45
2019-01-06T11:22:34.607Z,40
2019-01-06T11:23:34.094Z,45
2019-01-06T11:24:34.347Z,45
2019-01-06T11:25:34.640Z,45
2019-01-06T11:26:34.386Z,40
2019-01-06T11:27:38.735Z,35
2019-01-06T11:28:34.349Z,35
2019-01-06T11:29:34.568Z,35
2019-01-06T11:30:34.552Z,35
2019-01-06T11:31:34.623Z,35
2019-01-06T11:32:34.292Z,35
2019-01-06T11:33:34.303Z,35
2019-01-06T11:34:34.527Z,35
2019-01-06T11:35:34.261Z,35
2019-01-06T11:36:34.343Z,40
2019-01-06T11:37:34.253Z,40
2019-01-06T11:38:34.551Z,40
2019-01-06T11:39:34.256Z,40
2019-01-06T11:40:34.228Z,45
2019-01-06T11:41:34.522Z,45
2019-01-06T11:42:34.440Z,40
2019-01-06T11:43:34.214Z,40
2019-01-06T11:44:33.966Z,40
2019-01-06T11:45:34.165Z,40
2019-01-06T11:46:34.262Z,40
2019-01-06T11:47:34.164Z,40
2019-01-06T11:48:34.173Z,45
2019-01-06T11:49:33.634Z,45
2019-01-06T11:50:34.194Z,45
2019-01-06T11:51:34.180Z,45
2019-01-06T11:52:34.157Z,45
2019-01-06T11:53:34.103Z,45
2019-01-06T11:54:34.195Z,50
2019-01-06T11:55:34.092Z,50
2019-01-06T11:56:33.993Z,50
2019-01-06T11:57:35.182Z,50
2019-01-06T11:58:34.049Z,55
2019-01-06T11:59:34.051Z,55
2019-01-06T12:00:33.783Z,55
2019-01-06T12:01:34.130Z,55
2019-01-06T12:02:41.392Z,55
2019-01-06T12:03:33.770Z,55
2019-01-06T12:04:34.030Z,50
2019-01-06T12:05:34.021Z,45
2019-01-06T12:06:33.831Z,50
2019-01-06T12:07:34.063Z,50
2019-01-06T12:08:40.837Z,50
2019-01-06T12:09:33.712Z,50
2019-01-06T12:10:33.452Z,50
2019-01-06T12:11:34.323Z,50
2019-01-06T12:12:34.190Z,45
2019-01-06T12:13:34.040Z,45
2019-01-06T12:14:33.934Z,50
2019-01-06T12:15:33.966Z,50
2019-01-06T12:16:34.192Z,45
2019-01-06T12:17:33.664Z,50
2019-01-06T12:18:33.645Z,50
2019-01-06T12:19:40.941Z,55
2019-01-06T12:20:34.133Z,55
2019-01-06T12:21:33.883Z,55
2019-01-06T12:22:33.873Z,55
2019-01-06T12:23:33.869Z,55
2019-01-06T12:24:33.612Z,55
2019-01-06T12:25:33.586Z,55
2019-01-06T12:26:33.420Z,55
2019-01-06T12:27:33.603Z,55
2019-01-06T12:28:37.804Z,50
2019-01-06T12:29:34.067Z,45
2019-01-06T12:30:33.580Z,45
2019-01-06T12:31:33.569Z,45
2019-01-06T12:32:33.765Z,45
2019-01-06T12:33:33.505Z,40
2019-01-06T12:34:33.501Z,40
2019-01-06T12:35:33.504Z,40
2019-01-06T12:36:33.559Z,40
2019-01-06T12:37:33.712Z,40
2019-01-06T12:38:33.452Z,35
2019-01-06T12:39:33.717Z,35
2019-01-06T12:40:33.697Z,40
2019-01-06T12:41:33.245Z,40
2019-01-06T12:42:33.934Z,45
2019-01-06T12:43:34.025Z,45
2019-01-06T12:44:34.244Z,45
2019-01-06T12:45:33.417Z,45
2019-01-06T12:46:33.700Z,45
2019-01-06T12:47:33.421Z,40
2019-01-06T12:48:33.394Z,40
2019-01-06T12:49:33.881Z,40
2019-01-06T12:50:35.419Z,40
2019-01-06T12:51:33.928Z,40
2019-01-06T12:52:33.842Z,40
2019-01-06T12:53:41.499Z,40
2019-01-06T12:54:33.854Z,35
2019-01-06T12:55:33.089Z,35
2019-01-06T12:56:33.116Z,40
2019-01-06T12:57:33.327Z,40
2019-01-06T12:58:34.419Z,40
2019-01-06T12:59:33.290Z,40
2019-01-06T13:00:33.517Z,45
2019-01-06T13:01:33.364Z,45
2019-01-06T13:02:33.550Z,45
2019-01-06T13:03:33.547Z,45
2019-01-06T13:04:33.242Z,40
2019-01-06T13:05:33.243Z,40
2019-01-06T13:06:33.821Z,40
2019-01-06T13:07:33.718Z,40
2019-01-06T13:08:33.474Z,40
2019-01-06T13:09:33.470Z,40
2019-01-06T13:10:33.714Z,45
2019-01-06T13:11:33.435Z,45
2019-01-06T13:12:33.423Z,45
2019-01-06T13:13:41.026Z,45
2019-01-06T13:14:33.423Z,45
2019-01-06T13:15:33.404Z,45
2019-01-06T13:16:33.439Z,45
2019-01-06T13:17:33.403Z,45
2019-01-06T13:18:33.387Z,45
2019-01-06T13:19:33.380Z,40
2019-01-06T13:20:33.107Z,40
2019-01-06T13:21:33.641Z,40
2019-01-06T13:22:33.613Z,40
2019-01-06T13:23:33.350Z,35
2019-01-06T13:24:32.855Z,35
2019-01-06T13:25:32.888Z,35
2019-01-06T13:26:33.112Z,35
2019-01-06T13:27:33.566Z,35
2019-01-06T13:28:33.343Z,35
2019-01-06T13:29:35.431Z,35
2019-01-06T13:30:33.532Z,35
2019-01-06T13:31:32.827Z,35
2019-01-06T13:32:33.279Z,35
2019-01-06T13:33:33.258Z,35
2019-01-06T13:34:33.312Z,35
2019-01-06T13:35:33.494Z,35
2019-01-06T13:36:33.865Z,35
2019-01-06T13:37:33.477Z,35
2019-01-06T13:38:33.452Z,35
2019-01-06T13:39:33.223Z,35
2019-01-06T13:40:33.436Z,35
2019-01-06T13:41:33.044Z,35
2019-01-06T13:42:34.675Z,35
2019-01-06T13:43:33.201Z,35
2019-01-06T13:44:33.223Z,35
2019-01-06T13:45:33.418Z,35
2019-01-06T13:46:33.395Z,35
2019-01-06T13:47:32.880Z,35
2019-01-06T13:48:33.130Z,35
2019-01-06T13:49:32.913Z,35
2019-01-06T13:50:32.873Z,35
2019-01-06T13:51:32.884Z,35
2019-01-06T13:52:33.122Z,35
2019-01-06T13:53:33.382Z,35
2019-01-06T13:54:39.790Z,35
2019-01-06T13:55:33.078Z,35
2019-01-06T13:56:33.396Z,30
2019-01-06T13:57:32.814Z,30
2019-01-06T13:58:33.082Z,30
2019-01-06T13:59:33.636Z,30
2019-01-06T14:00:33.065Z,30
2019-01-06T14:01:33.241Z,25
2019-01-06T14:02:32.523Z,25
2019-01-06T14:03:33.271Z,25
2019-01-06T14:04:32.752Z,20
2019-01-06T14:05:32.987Z,20
2019-01-06T14:06:32.743Z,20
2019-01-06T14:07:32.966Z,20
2019-01-06T14:08:33.242Z,20
2019-01-06T14:09:32.843Z,20
2019-01-06T14:10:33.218Z,20
2019-01-06T14:11:33.100Z,25
2019-01-06T14:12:32.937Z,25
2019-01-06T14:13:32.926Z,25
2019-01-06T14:14:33.130Z,25
2019-01-06T14:15:32.994Z,25
2019-01-06T14:16:32.494Z,25
2019-01-06T14:17:32.917Z,25
2019-01-06T14:18:32.882Z,25
2019-01-06T14:19:32.633Z,25
2019-01-06T14:20:32.891Z,25
2019-01-06T14:21:32.395Z,25
2019-01-06T14:22:32.342Z,25
2019-01-06T14:23:32.588Z,25
2019-01-06T14:24:32.600Z,25
2019-01-06T14:25:32.851Z,25
2019-01-06T14:26:32.685Z,30
2019-01-06T14:27:33.062Z,30
2019-01-06T14:28:32.837Z,30
2019-01-06T14:29:33.033Z,35
2019-01-06T14:30:32.988Z,35
2019-01-06T14:31:32.632Z,35
2019-01-06T14:32:32.762Z,35